createdAt,value
2023-03-02T00:01:45.742Z,95.00
2023-03-02T00:04:18.070Z,109.25
2023-03-02T00:06:45.176Z,102.00
2023-03-02T00:09:12.248Z,89.00
2023-03-02T00:11:39.459Z,84.25
2023-03-02T00:14:06.838Z,71.25
2023-03-02T00:16:34.712Z,99.75
2023-03-02T00:19:01.809Z,96.75
2023-03-02T00:21:28.817Z,93.25
2023-03-02T00:23:55.732Z,88.50
2023-03-02T00:26:22.792Z,75.75
2023-03-02T00:28:49.755Z,65.25
2023-03-02T00:31:16.915Z,52.25
2023-03-02T00:33:44.100Z,37.50
2023-03-02T00:36:22.312Z,26.75
2023-03-02T00:38:49.713Z,40.00
2023-03-02T00:41:17.131Z,27.33
2023-03-02T00:43:44.074Z,45.33
2023-03-02T00:46:12.937Z,30.00
2023-03-02T00:48:39.886Z,27.33
2023-03-02T00:51:07.974Z,26.33
2023-03-02T00:53:38.260Z,48.25
2023-03-02T00:56:06.234Z,93.50
2023-03-02T00:58:33.200Z,93.00
2023-03-02T01:01:05.177Z,108.00
2023-03-02T01:03:32.195Z,93.25
2023-03-02T01:05:59.160Z,84.00
2023-03-02T01:08:26.108Z,63.25
2023-03-02T01:10:54.337Z,57.50
2023-03-02T01:13:21.607Z,43.50
2023-03-02T01:15:48.881Z,29.00
2023-03-02T01:18:15.821Z,43.50
2023-03-02T01:20:42.773Z,76.25
2023-03-02T01:23:09.689Z,101.25
2023-03-02T01:25:39.130Z,103.00
2023-03-02T01:28:06.079Z,86.75
2023-03-02T01:30:33.121Z,108.25
2023-03-02T01:33:00.019Z,100.00
2023-03-02T01:35:27.066Z,90.00
2023-03-02T01:37:53.989Z,89.50
2023-03-02T01:40:20.981Z,83.00
2023-03-02T01:42:56.868Z,80.00
2023-03-02T01:46:05.052Z,99.25
2023-03-02T01:48:35.802Z,81.75
2023-03-02T01:51:05.270Z,89.50
2023-03-02T01:53:34.328Z,73.50
2023-03-02T01:56:03.109Z,71.75
2023-03-02T01:58:34.726Z,56.25
2023-03-02T02:01:01.955Z,55.00
2023-03-02T02:03:31.229Z,59.75
2023-03-02T02:06:00.704Z,58.00
2023-03-02T02:08:28.980Z,49.50
2023-03-02T02:11:13.675Z,67.75
2023-03-02T02:14:12.964Z,82.00
2023-03-02T02:16:55.402Z,77.00
2023-03-02T02:20:13.821Z,69.25
2023-03-02T02:23:17.974Z,73.00
2023-03-02T02:26:03.130Z,61.50
2023-03-02T02:28:48.524Z,69.75
2023-03-02T02:31:24.022Z,78.75
2023-03-02T02:33:58.894Z,84.25
2023-03-02T02:36:34.229Z,78.75
2023-03-02T02:39:04.614Z,78.50
2023-03-02T02:41:39.062Z,74.50
2023-03-02T02:44:06.654Z,57.75
2023-03-02T02:46:34.756Z,45.50
2023-03-02T02:49:04.417Z,34.25
2023-03-02T02:51:31.372Z,63.50
2023-03-02T02:54:01.331Z,48.00
2023-03-02T02:56:33.116Z,57.50
2023-03-02T02:59:06.548Z,85.00
2023-03-02T03:01:34.811Z,92.00
2023-03-02T03:04:04.507Z,83.00
2023-03-02T03:06:42.793Z,77.75
2023-03-02T03:09:13.121Z,78.50
2023-03-02T03:11:46.855Z,82.50
2023-03-02T03:14:16.231Z,83.00
2023-03-02T03:16:45.339Z,82.50
2023-03-02T03:19:16.377Z,88.25
2023-03-02T03:21:43.343Z,75.00
2023-03-02T03:24:10.803Z,89.25
2023-03-02T03:26:37.789Z,82.00
2023-03-02T03:29:05.023Z,94.75
2023-03-02T03:31:32.000Z,83.50
2023-03-02T03:34:01.913Z,70.00
2023-03-02T03:36:30.997Z,65.75
2023-03-02T03:38:58.516Z,56.75
2023-03-02T03:41:25.654Z,43.00
2023-03-02T03:43:53.372Z,61.75
2023-03-02T03:46:20.790Z,57.25
2023-03-02T03:48:47.799Z,76.00
2023-03-02T03:51:14.736Z,82.50
2023-03-02T03:53:41.667Z,83.00
2023-03-02T03:56:08.716Z,74.00
2023-03-02T03:58:36.085Z,75.00
2023-03-02T04:01:05.944Z,56.50
2023-03-02T04:03:33.954Z,55.00
2023-03-02T04:06:01.076Z,79.75
2023-03-02T04:08:28.145Z,47.50
2023-03-02T04:10:55.077Z,36.75
2023-03-02T04:13:22.026Z,62.25
2023-03-02T04:15:48.962Z,41.25
2023-03-02T04:18:15.929Z,76.25
2023-03-02T04:20:42.843Z,78.75
2023-03-02T04:23:09.813Z,66.75
2023-03-02T04:25:36.680Z,23.75
2023-03-02T04:28:03.643Z,54.50
2023-03-02T04:30:30.631Z,47.00
2023-03-02T04:32:57.885Z,38.75
2023-03-02T04:35:25.783Z,43.25
2023-03-02T04:37:52.771Z,54.00
2023-03-02T04:40:20.260Z,63.50
2023-03-02T04:42:47.488Z,59.75
2023-03-02T04:45:15.226Z,73.75
2023-03-02T04:47:42.760Z,71.00
2023-03-02T04:50:12.412Z,50.75
2023-03-02T04:52:39.628Z,70.00
2023-03-02T04:55:07.572Z,75.25
2023-03-02T04:57:36.944Z,98.00
2023-03-02T05:00:05.154Z,91.75
2023-03-02T05:02:32.405Z,101.50
2023-03-02T05:04:59.327Z,92.25
2023-03-02T05:07:26.324Z,74.50
2023-03-02T05:09:53.246Z,52.50
2023-03-02T05:12:21.921Z,71.00
2023-03-02T05:14:48.816Z,51.00
2023-03-02T05:17:15.912Z,30.50
2023-03-02T05:19:42.847Z,47.25
2023-03-02T05:22:09.992Z,28.50
2023-03-02T05:24:37.611Z,52.00
2023-03-02T05:27:05.090Z,46.75
2023-03-02T05:29:32.097Z,38.50
2023-03-02T05:31:59.110Z,22.00
2023-03-02T05:34:26.063Z,20.25
2023-03-02T05:36:52.928Z,25.00
2023-03-02T05:39:19.869Z,69.25
2023-03-02T05:41:46.785Z,56.75
2023-03-02T05:44:13.760Z,62.25
2023-03-02T05:46:41.876Z,51.50
2023-03-02T05:49:08.977Z,71.50
2023-03-02T05:51:35.869Z,80.00
2023-03-02T05:54:02.766Z,81.50
2023-03-02T05:56:29.661Z,79.00
2023-03-02T05:58:56.588Z,64.00
2023-03-02T06:01:23.544Z,51.00
2023-03-02T06:03:50.477Z,52.50
2023-03-02T06:06:17.429Z,34.25
2023-03-02T06:08:44.901Z,37.00
2023-03-02T06:11:12.837Z,28.00
2023-03-02T06:13:40.522Z,20.25
2023-03-02T06:16:08.557Z,45.50
2023-03-02T06:18:36.387Z,66.00
2023-03-02T06:21:03.964Z,87.75
2023-03-02T06:23:31.188Z,65.75
2023-03-02T06:25:59.262Z,69.25
2023-03-02T06:28:26.978Z,68.25
2023-03-02T06:30:53.972Z,52.25
2023-03-02T06:33:21.719Z,39.50
2023-03-02T06:35:49.490Z,45.50
2023-03-02T06:38:16.755Z,33.50
2023-03-02T06:40:44.089Z,45.50
2023-03-02T06:43:11.372Z,78.75
2023-03-02T06:45:38.564Z,42.25
2023-03-02T06:48:05.906Z,66.25
2023-03-02T06:50:33.834Z,49.25
2023-03-02T06:53:00.826Z,67.00
2023-03-02T06:55:27.891Z,69.25
2023-03-02T06:57:54.809Z,95.00
2023-03-02T07:00:26.518Z,85.50
2023-03-02T07:02:54.013Z,94.75
2023-03-02T07:05:22.050Z,101.75
2023-03-02T07:07:49.064Z,107.00
2023-03-02T07:10:16.495Z,80.75
2023-03-02T07:12:43.454Z,75.25
2023-03-02T07:15:12.523Z,78.00
2023-03-02T07:17:40.467Z,78.50
2023-03-02T07:20:08.722Z,76.25
2023-03-02T07:22:35.789Z,75.00
2023-03-02T07:25:02.694Z,70.75
2023-03-02T07:27:29.894Z,54.50
2023-03-02T07:29:56.770Z,47.67
2023-03-02T07:32:23.871Z,79.00
2023-03-02T07:34:50.786Z,99.50
2023-03-02T07:37:17.818Z,96.50
2023-03-02T07:39:44.817Z,106.25
2023-03-02T07:42:12.954Z,108.75
2023-03-02T07:44:39.983Z,104.00
2023-03-02T07:47:06.926Z,106.00
2023-03-02T07:49:35.585Z,106.75
2023-03-02T07:52:03.321Z,95.50
2023-03-02T07:54:30.756Z,90.75
2023-03-02T07:56:58.629Z,91.50
2023-03-02T07:59:26.308Z,97.25
2023-03-02T08:01:53.286Z,88.75
2023-03-02T08:04:20.220Z,94.75
2023-03-02T08:06:47.175Z,77.75
2023-03-02T08:09:16.729Z,92.25
2023-03-02T08:11:45.043Z,78.00
2023-03-02T08:14:12.206Z,74.33
2023-03-02T08:16:40.176Z,70.00
2023-03-02T08:19:08.042Z,71.67
2023-03-02T08:21:35.422Z,85.00
2023-03-02T08:24:02.569Z,85.25
2023-03-02T08:26:29.648Z,84.00
2023-03-02T08:28:56.664Z,85.25
2023-03-02T08:31:23.789Z,74.33
2023-03-02T08:33:51.246Z,66.33
2023-03-02T08:36:19.658Z,65.67
2023-03-02T08:38:47.754Z,81.67
2023-03-02T08:41:25.223Z,79.67
2023-03-02T08:43:54.473Z,92.50
2023-03-02T08:46:22.105Z,83.00
2023-03-02T08:48:52.799Z,78.67
2023-03-02T08:51:22.800Z,93.67
2023-03-02T08:53:51.837Z,75.00
2023-03-02T08:56:22.047Z,74.67
2023-03-02T08:58:50.076Z,78.67
2023-03-02T09:01:27.168Z,78.00
2023-03-02T09:03:54.189Z,68.67
2023-03-02T09:06:21.647Z,69.33
2023-03-02T09:08:50.004Z,69.33
2023-03-02T09:11:17.372Z,60.67
2023-03-02T09:13:44.364Z,57.00
2023-03-02T09:16:12.292Z,70.00
2023-03-02T09:18:39.767Z,46.33
2023-03-02T09:21:07.054Z,49.50
2023-03-02T09:23:36.729Z,37.00
2023-03-02T09:26:04.698Z,28.00
2023-03-02T09:28:32.235Z,27.75
2023-03-02T09:31:01.976Z,35.25
2023-03-02T09:33:30.376Z,32.25
2023-03-02T09:35:57.353Z,39.50
2023-03-02T09:38:24.471Z,29.00
2023-03-02T09:41:27.310Z,42.25
2023-03-02T09:44:12.991Z,44.25
2023-03-02T09:46:44.509Z,43.25
2023-03-02T09:49:35.879Z,32.25
2023-03-02T09:52:35.489Z,28.75
2023-03-02T09:55:18.540Z,19.75
2023-03-02T09:57:47.333Z,16.00
2023-03-02T10:00:27.385Z,14.25
2023-03-02T10:03:17.054Z,23.75
2023-03-02T10:05:50.382Z,36.50
2023-03-02T10:08:23.846Z,26.00
2023-03-02T10:10:58.297Z,23.00
2023-03-02T10:13:47.578Z,15.25
2023-03-02T10:16:31.362Z,26.50
2023-03-02T10:19:08.104Z,21.50
2023-03-02T10:21:41.606Z,19.25
2023-03-02T10:24:23.927Z,19.00
2023-03-02T10:26:55.488Z,16.00
2023-03-02T10:29:41.094Z,17.50
2023-03-02T10:32:20.052Z,18.25
2023-03-02T10:34:49.471Z,23.50
2023-03-02T10:37:21.899Z,16.00
2023-03-02T10:39:49.826Z,17.75
2023-03-02T10:42:22.706Z,22.75
2023-03-02T10:44:55.721Z,11.75
2023-03-02T10:47:28.493Z,15.00
2023-03-02T10:49:57.466Z,28.75
2023-03-02T10:52:26.546Z,20.75
2023-03-02T10:55:07.802Z,23.50
2023-03-02T10:57:58.988Z,24.00
2023-03-02T11:00:28.950Z,9.50
2023-03-02T11:02:59.109Z,15.75
2023-03-02T11:05:30.981Z,18.50
2023-03-02T11:08:05.591Z,15.50
2023-03-02T11:10:41.973Z,20.50
2023-03-02T11:13:28.913Z,18.50
2023-03-02T11:16:23.002Z,14.50
2023-03-02T11:18:54.767Z,20.25
2023-03-02T11:21:38.341Z,13.25
2023-03-02T11:24:18.585Z,25.25
2023-03-02T11:26:59.920Z,24.50
2023-03-02T11:29:35.744Z,26.25
2023-03-02T11:32:08.685Z,24.50
2023-03-02T11:34:41.440Z,21.00
2023-03-02T11:37:40.548Z,24.25
2023-03-02T11:40:16.385Z,28.75
2023-03-02T11:42:45.765Z,23.25
2023-03-02T11:45:18.027Z,31.00
2023-03-02T11:48:05.114Z,25.75
2023-03-02T11:50:46.407Z,16.00
2023-03-02T11:53:18.281Z,18.75
2023-03-02T11:55:48.812Z,13.00
2023-03-02T11:58:21.894Z,26.00
2023-03-02T12:00:49.836Z,23.75
2023-03-02T12:03:16.675Z,20.75
2023-03-02T12:05:51.400Z,23.50
2023-03-02T12:08:21.123Z,15.75
2023-03-02T12:11:00.932Z,15.25
2023-03-02T12:13:30.765Z,17.00
2023-03-02T12:15:58.009Z,16.50
2023-03-02T12:18:25.123Z,15.75
2023-03-02T12:21:19.953Z,10.75
2023-03-02T12:23:49.664Z,9.00
2023-03-02T12:26:34.333Z,4.00
2023-03-02T12:29:07.194Z,10.00
2023-03-02T12:31:55.548Z,10.00
2023-03-02T12:34:27.332Z,14.75
2023-03-02T12:37:01.913Z,15.25
2023-03-02T12:39:34.688Z,19.25
2023-03-02T12:42:32.461Z,15.50
2023-03-02T12:45:20.846Z,7.50
2023-03-02T12:47:57.204Z,9.25
2023-03-02T12:50:27.814Z,9.50
2023-03-02T12:53:06.585Z,9.75
2023-03-02T12:55:34.609Z,11.00
2023-03-02T12:58:02.352Z,14.75
2023-03-02T13:00:32.165Z,10.00
2023-03-02T13:03:02.386Z,6.50
2023-03-02T13:05:35.404Z,8.00
2023-03-02T13:08:06.248Z,12.00
2023-03-02T13:10:56.329Z,14.00
2023-03-02T13:13:34.915Z,10.50
2023-03-02T13:16:20.545Z,8.00
2023-03-02T13:18:50.052Z,13.75
2023-03-02T13:21:19.304Z,11.75
2023-03-02T13:23:54.549Z,11.00
2023-03-02T13:26:35.913Z,18.75
2023-03-02T13:29:19.441Z,12.75
2023-03-02T13:31:47.281Z,12.50
2023-03-02T13:34:28.558Z,15.00
2023-03-02T13:36:55.866Z,9.50
2023-03-02T13:39:27.514Z,14.00
2023-03-02T13:42:00.376Z,12.25
2023-03-02T13:44:29.826Z,11.25
2023-03-02T13:46:57.251Z,12.00
2023-03-02T13:49:35.592Z,9.25
2023-03-02T13:52:08.320Z,10.25
2023-03-02T13:54:37.732Z,7.25
2023-03-02T13:57:06.336Z,11.25
2023-03-02T13:59:36.800Z,7.75
2023-03-02T14:02:06.652Z,14.75
2023-03-02T14:04:33.667Z,14.00
2023-03-02T14:07:00.692Z,17.00
2023-03-02T14:09:27.589Z,11.00
2023-03-02T14:11:56.203Z,17.75
2023-03-02T14:14:27.318Z,29.75
2023-03-02T14:16:54.224Z,16.25
2023-03-02T14:19:21.541Z,17.75
2023-03-02T14:21:48.405Z,17.00
2023-03-02T14:24:15.514Z,24.75
2023-03-02T14:26:49.190Z,18.50
2023-03-02T14:29:23.710Z,14.75
2023-03-02T14:31:51.348Z,22.00
2023-03-02T14:34:18.512Z,22.75
2023-03-02T14:36:49.134Z,27.75
2023-03-02T14:39:40.251Z,22.75
2023-03-02T14:42:13.113Z,23.25
2023-03-02T14:44:41.365Z,17.75
2023-03-02T14:47:10.300Z,18.00
2023-03-02T14:49:38.418Z,13.50
2023-03-02T14:52:25.173Z,8.50
2023-03-02T14:54:58.207Z,18.25
2023-03-02T14:57:28.028Z,17.25
2023-03-02T14:59:56.421Z,17.25
2023-03-02T15:02:26.544Z,24.50
2023-03-02T15:04:56.518Z,24.25
2023-03-02T15:07:26.324Z,19.25
2023-03-02T15:09:54.835Z,28.75
2023-03-02T15:12:21.949Z,27.00
2023-03-02T15:14:48.858Z,16.25
2023-03-02T15:17:15.864Z,20.00
2023-03-02T15:19:42.838Z,19.00
2023-03-02T15:22:09.873Z,15.50
2023-03-02T15:24:36.792Z,16.75
2023-03-02T15:27:03.813Z,28.50
2023-03-02T15:29:30.721Z,30.25
2023-03-02T15:31:57.698Z,22.75
2023-03-02T15:34:24.703Z,14.00
2023-03-02T15:36:51.574Z,13.00
2023-03-02T15:39:18.477Z,23.50
2023-03-02T15:41:45.578Z,21.75
2023-03-02T15:44:23.120Z,18.50
2023-03-02T15:46:51.995Z,10.75
2023-03-02T15:49:24.664Z,13.75
2023-03-02T15:51:52.414Z,10.25
2023-03-02T15:54:19.848Z,7.75
2023-03-02T15:56:52.339Z,9.25
2023-03-02T15:59:24.306Z,7.25
2023-03-02T16:01:52.122Z,9.00
2023-03-02T16:04:19.689Z,4.00
2023-03-02T16:06:46.633Z,8.25
2023-03-02T16:09:13.579Z,10.50
2023-03-02T16:11:40.545Z,14.75
2023-03-02T16:14:10.358Z,12.50
2023-03-02T16:16:37.333Z,19.25
2023-03-02T16:19:04.325Z,36.75
2023-03-02T16:21:31.496Z,19.50
2023-03-02T16:24:04.763Z,16.25
2023-03-02T16:26:33.817Z,14.50
2023-03-02T16:29:01.754Z,13.00
2023-03-02T16:31:32.555Z,13.00
2023-03-02T16:34:03.939Z,9.00
2023-03-02T16:36:30.985Z,14.25
2023-03-02T16:38:57.860Z,13.25
2023-03-02T16:41:24.857Z,14.00
2023-03-02T16:43:57.192Z,13.00
2023-03-02T16:46:26.140Z,12.50
2023-03-02T16:48:53.763Z,14.25
2023-03-02T16:51:22.168Z,16.50
2023-03-02T16:53:49.438Z,8.50
2023-03-02T16:56:16.483Z,11.50
2023-03-02T16:58:44.015Z,7.00
2023-03-02T17:01:14.705Z,12.00
2023-03-02T17:03:42.507Z,10.75
2023-03-02T17:06:11.856Z,10.50
2023-03-02T17:08:39.148Z,6.50
2023-03-02T17:11:06.793Z,20.25
2023-03-02T17:13:34.485Z,31.75
2023-03-02T17:16:01.941Z,77.67
2023-03-02T17:18:30.033Z,67.33
2023-03-02T17:20:58.842Z,60.00
2023-03-02T17:23:27.378Z,69.00
2023-03-02T17:25:55.820Z,65.00
2023-03-02T17:28:23.249Z,62.33
2023-03-02T17:30:50.805Z,58.00
2023-03-02T17:33:18.496Z,69.33
2023-03-02T17:35:46.414Z,56.33
2023-03-02T17:38:14.786Z,63.00
2023-03-02T17:40:43.181Z,49.67
2023-03-02T17:43:10.722Z,43.33
2023-03-02T17:45:40.426Z,43.00
2023-03-02T17:48:07.537Z,25.25
2023-03-02T17:50:35.307Z,29.75
2023-03-02T17:53:03.484Z,21.25
2023-03-02T17:55:31.307Z,29.00
2023-03-02T17:57:58.965Z,26.75
2023-03-02T18:00:26.426Z,45.00
2023-03-02T18:02:54.833Z,41.00
2023-03-02T18:05:22.884Z,26.67
2023-03-02T18:07:52.154Z,37.33
2023-03-02T18:10:19.635Z,51.33
2023-03-02T18:12:52.353Z,67.67
2023-03-02T18:15:21.351Z,58.67
2023-03-02T18:17:49.360Z,34.67
2023-03-02T18:20:17.417Z,30.00
2023-03-02T18:22:44.625Z,28.00
2023-03-02T18:25:14.351Z,29.33
2023-03-02T18:27:41.713Z,24.33
2023-03-02T18:30:09.686Z,25.33
2023-03-02T18:32:38.505Z,18.33
2023-03-02T18:35:08.629Z,19.67
2023-03-02T18:37:37.343Z,25.33
2023-03-02T18:40:06.725Z,21.33
2023-03-02T18:42:34.321Z,16.67
2023-03-02T18:45:01.536Z,13.33
2023-03-02T18:47:34.903Z,20.00
2023-03-02T18:50:01.878Z,31.67
2023-03-02T18:52:29.152Z,26.00
2023-03-02T18:54:58.349Z,43.00
2023-03-02T18:57:25.827Z,46.33
2023-03-02T18:59:53.621Z,42.00
2023-03-02T19:02:21.489Z,24.33
2023-03-02T19:04:48.794Z,22.33
2023-03-02T19:07:16.576Z,25.00
2023-03-02T19:09:43.722Z,29.67
2023-03-02T19:12:11.920Z,18.33
2023-03-02T19:14:42.898Z,15.00
2023-03-02T19:17:10.423Z,12.67
2023-03-02T19:19:37.519Z,27.67
2023-03-02T19:22:09.369Z,21.00
2023-03-02T19:24:36.616Z,12.33
2023-03-02T19:27:03.879Z,15.33
2023-03-02T19:29:30.722Z,16.67
2023-03-02T19:31:57.892Z,18.00
2023-03-02T19:34:24.917Z,33.00
2023-03-02T19:36:51.816Z,53.00
2023-03-02T19:39:18.808Z,73.33
2023-03-02T19:41:45.772Z,65.33
2023-03-02T19:44:12.817Z,67.33
2023-03-02T19:46:40.490Z,55.00
2023-03-02T19:49:07.451Z,52.67
2023-03-02T19:51:35.199Z,60.00
2023-03-02T19:54:04.093Z,63.33
2023-03-02T19:56:40.308Z,80.00
2023-03-02T19:59:08.758Z,88.75
2023-03-02T20:01:36.276Z,81.50
2023-03-02T20:04:03.935Z,69.25
2023-03-02T20:06:34.351Z,88.25
2023-03-02T20:09:06.953Z,79.50
2023-03-02T20:11:34.974Z,79.00
2023-03-02T20:14:02.474Z,74.50
2023-03-02T20:16:34.701Z,65.50
2023-03-02T20:19:04.149Z,53.33
2023-03-02T20:21:34.295Z,58.33
2023-03-02T20:24:01.543Z,60.00
2023-03-02T20:26:28.627Z,62.25
2023-03-02T20:28:56.657Z,70.00
2023-03-02T20:31:25.223Z,76.75
2023-03-02T20:33:55.012Z,91.25
2023-03-02T20:36:35.941Z,89.00
2023-03-02T20:39:34.188Z,56.75
2023-03-02T20:42:03.229Z,59.75
2023-03-02T20:44:33.672Z,65.00
2023-03-02T20:47:07.371Z,52.00
2023-03-02T20:49:36.627Z,43.67
2023-03-02T20:52:05.587Z,39.00
2023-03-02T20:54:37.170Z,41.00
2023-03-02T20:57:05.795Z,34.00
2023-03-02T20:59:32.972Z,29.00
2023-03-02T21:02:00.157Z,23.67
2023-03-02T21:04:27.453Z,18.33
2023-03-02T21:06:54.640Z,13.33
2023-03-02T21:09:21.680Z,18.33
2023-03-02T21:11:49.046Z,17.33
2023-03-02T21:14:16.588Z,17.00
2023-03-02T21:16:45.837Z,14.33
2023-03-02T21:19:17.445Z,14.33
2023-03-02T21:21:44.441Z,11.33
2023-03-02T21:24:13.582Z,13.33
2023-03-02T21:26:41.885Z,27.00
2023-03-02T21:29:11.873Z,44.33
2023-03-02T21:31:41.276Z,66.25
2023-03-02T21:34:08.557Z,75.75
2023-03-02T21:36:36.631Z,85.00
2023-03-02T21:39:07.274Z,49.00
2023-03-02T21:41:36.207Z,45.00
2023-03-02T21:44:05.915Z,31.67
2023-03-02T21:46:35.103Z,39.00
2023-03-02T21:49:02.155Z,55.67
2023-03-02T21:51:29.194Z,72.25
2023-03-02T21:53:56.185Z,52.50
2023-03-02T21:56:25.626Z,61.00
2023-03-02T21:58:55.512Z,60.67
2023-03-02T22:01:24.338Z,48.33
2023-03-02T22:03:51.387Z,56.00
2023-03-02T22:06:24.096Z,46.67
2023-03-02T22:08:52.304Z,50.00
2023-03-02T22:11:30.868Z,62.25
2023-03-02T22:14:00.714Z,57.50
2023-03-02T22:16:37.387Z,54.00
2023-03-02T22:19:27.960Z,30.67
2023-03-02T22:21:57.079Z,32.33
2023-03-02T22:24:26.947Z,33.33
2023-03-02T22:27:02.631Z,24.67
2023-03-02T22:29:33.735Z,33.67
2023-03-02T22:32:15.526Z,31.00
2023-03-02T22:34:44.555Z,21.33
2023-03-02T22:37:15.460Z,26.00
2023-03-02T22:39:42.560Z,28.67
2023-03-02T22:42:16.784Z,24.33
2023-03-02T22:44:48.001Z,17.67
2023-03-02T22:47:20.525Z,14.00
2023-03-02T22:49:48.169Z,14.67
2023-03-02T22:52:21.079Z,13.33
2023-03-02T22:54:48.053Z,15.33
2023-03-02T22:57:33.735Z,14.00
2023-03-02T23:00:29.864Z,23.00
2023-03-02T23:02:57.677Z,66.25
2023-03-02T23:05:34.961Z,75.75
2023-03-02T23:08:22.608Z,80.25
2023-03-02T23:10:51.597Z,78.50
2023-03-02T23:13:21.102Z,81.50
2023-03-02T23:15:49.461Z,64.75
2023-03-02T23:18:24.389Z,76.75
2023-03-02T23:20:52.565Z,71.75
2023-03-02T23:23:21.390Z,75.25
2023-03-02T23:25:49.087Z,61.25
2023-03-02T23:28:16.025Z,54.00
2023-03-02T23:30:43.109Z,45.00
2023-03-02T23:33:10.080Z,26.67
2023-03-02T23:35:37.070Z,22.33
2023-03-02T23:38:04.190Z,30.67
2023-03-02T23:40:31.098Z,26.67
2023-03-02T23:42:58.012Z,52.00
2023-03-02T23:45:24.962Z,37.33
2023-03-02T23:47:52.362Z,29.67
2023-03-02T23:50:19.267Z,25.00
2023-03-02T23:52:46.181Z,47.50
2023-03-02T23:55:13.154Z,61.00
2023-03-02T23:57:40.098Z,34.00
